sensor_id;sensor_type;location;lat;lon;timestamp;P1;durP1;ratioP1;P2;durP2;ratioP2
7657;SDS011;8462;53.156;8.220;2024-03-07T00:01:16;10.60;;;7.60;;
7657;SDS011;8462;53.156;8.220;2024-03-07T00:03:43;12.13;;;8.83;;
7657;SDS011;8462;53.156;8.220;2024-03-07T00:06:13;11.80;;;8.97;;
7657;SDS011;8462;53.156;8.220;2024-03-07T00:08:40;12.97;;;8.50;;
7657;SDS011;8462;53.156;8.220;2024-03-07T00:11:09;12.53;;;8.70;;
7657;SDS011;8462;53.156;8.220;2024-03-07T00:13:36;12.23;;;8.47;;
7657;SDS011;8462;53.156;8.220;2024-03-07T00:16:04;12.83;;;8.67;;
7657;SDS011;8462;53.156;8.220;2024-03-07T00:18:32;11.33;;;8.57;;
7657;SDS011;8462;53.156;8.220;2024-03-07T00:21:02;12.20;;;9.03;;
7657;SDS011;8462;53.156;8.220;2024-03-07T00:23:33;12.73;;;9.17;;
7657;SDS011;8462;53.156;8.220;2024-03-07T00:26:01;12.10;;;9.23;;
7657;SDS011;8462;53.156;8.220;2024-03-07T00:28:29;11.07;;;8.73;;
7657;SDS011;8462;53.156;8.220;2024-03-07T00:31:03;12.27;;;7.77;;
7657;SDS011;8462;53.156;8.220;2024-03-07T00:33:33;13.47;;;9.53;;
7657;SDS011;8462;53.156;8.220;2024-03-07T00:36:01;11.83;;;9.00;;
7657;SDS011;8462;53.156;8.220;2024-03-07T00:38:30;10.93;;;8.47;;
7657;SDS011;8462;53.156;8.220;2024-03-07T00:41:00;13.90;;;10.30;;
7657;SDS011;8462;53.156;8.220;2024-03-07T00:43:31;14.77;;;10.30;;
7657;SDS011;8462;53.156;8.220;2024-03-07T00:46:01;14.17;;;11.23;;
7657;SDS011;8462;53.156;8.220;2024-03-07T00:48:29;15.87;;;10.33;;
7657;SDS011;8462;53.156;8.220;2024-03-07T00:50:56;14.67;;;10.27;;
7657;SDS011;8462;53.156;8.220;2024-03-07T00:53:27;12.60;;;8.77;;
7657;SDS011;8462;53.156;8.220;2024-03-07T00:55:56;13.47;;;10.00;;
7657;SDS011;8462;53.156;8.220;2024-03-07T00:58:26;14.70;;;9.87;;
7657;SDS011;8462;53.156;8.220;2024-03-07T01:00:53;15.60;;;10.80;;
7657;SDS011;8462;53.156;8.220;2024-03-07T01:03:23;13.63;;;10.17;;
7657;SDS011;8462;53.156;8.220;2024-03-07T01:05:51;15.10;;;11.70;;
7657;SDS011;8462;53.156;8.220;2024-03-07T01:08:22;15.53;;;11.37;;
7657;SDS011;8462;53.156;8.220;2024-03-07T01:10:53;13.33;;;10.50;;
7657;SDS011;8462;53.156;8.220;2024-03-07T01:13:22;15.50;;;11.23;;
7657;SDS011;8462;53.156;8.220;2024-03-07T01:15:52;15.67;;;12.27;;
7657;SDS011;8462;53.156;8.220;2024-03-07T01:18:20;18.50;;;10.77;;
7657;SDS011;8462;53.156;8.220;2024-03-07T01:20:48;17.73;;;11.90;;
7657;SDS011;8462;53.156;8.220;2024-03-07T01:23:16;16.23;;;12.10;;
7657;SDS011;8462;53.156;8.220;2024-03-07T01:25:44;20.97;;;13.63;;
7657;SDS011;8462;53.156;8.220;2024-03-07T01:28:11;14.73;;;11.87;;
7657;SDS011;8462;53.156;8.220;2024-03-07T01:30:42;15.60;;;12.27;;
7657;SDS011;8462;53.156;8.220;2024-03-07T01:33:13;16.10;;;13.27;;
7657;SDS011;8462;53.156;8.220;2024-03-07T01:35:41;16.97;;;11.57;;
7657;SDS011;8462;53.156;8.220;2024-03-07T01:38:15;16.27;;;11.67;;
7657;SDS011;8462;53.156;8.220;2024-03-07T01:40:44;18.33;;;12.77;;
7657;SDS011;8462;53.156;8.220;2024-03-07T01:43:12;15.70;;;10.67;;
7657;SDS011;8462;53.156;8.220;2024-03-07T01:45:43;18.10;;;13.30;;
7657;SDS011;8462;53.156;8.220;2024-03-07T01:48:11;17.67;;;11.83;;
7657;SDS011;8462;53.156;8.220;2024-03-07T01:50:48;17.53;;;13.53;;
7657;SDS011;8462;53.156;8.220;2024-03-07T01:53:16;21.37;;;15.40;;
7657;SDS011;8462;53.156;8.220;2024-03-07T01:55:49;21.63;;;14.57;;
7657;SDS011;8462;53.156;8.220;2024-03-07T01:58:21;18.20;;;13.20;;
7657;SDS011;8462;53.156;8.220;2024-03-07T02:00:53;21.73;;;14.87;;
7657;SDS011;8462;53.156;8.220;2024-03-07T02:03:20;20.37;;;13.87;;
7657;SDS011;8462;53.156;8.220;2024-03-07T02:05:48;22.57;;;16.17;;
7657;SDS011;8462;53.156;8.220;2024-03-07T02:08:18;22.93;;;14.93;;
7657;SDS011;8462;53.156;8.220;2024-03-07T02:10:46;20.43;;;15.13;;
7657;SDS011;8462;53.156;8.220;2024-03-07T02:13:14;17.83;;;13.23;;
7657;SDS011;8462;53.156;8.220;2024-03-07T02:15:44;19.30;;;14.90;;
7657;SDS011;8462;53.156;8.220;2024-03-07T02:18:13;22.73;;;15.47;;
7657;SDS011;8462;53.156;8.220;2024-03-07T02:20:45;20.37;;;14.57;;
7657;SDS011;8462;53.156;8.220;2024-03-07T02:23:14;21.63;;;15.90;;
7657;SDS011;8462;53.156;8.220;2024-03-07T02:25:43;22.10;;;15.83;;
7657;SDS011;8462;53.156;8.220;2024-03-07T02:28:12;23.63;;;16.20;;
7657;SDS011;8462;53.156;8.220;2024-03-07T02:30:40;22.53;;;15.30;;
7657;SDS011;8462;53.156;8.220;2024-03-07T02:33:08;24.00;;;15.63;;
7657;SDS011;8462;53.156;8.220;2024-03-07T02:35:38;23.23;;;15.93;;
7657;SDS011;8462;53.156;8.220;2024-03-07T02:38:08;24.57;;;15.90;;
7657;SDS011;8462;53.156;8.220;2024-03-07T02:40:36;24.10;;;16.13;;
7657;SDS011;8462;53.156;8.220;2024-03-07T02:43:04;24.87;;;17.17;;
7657;SDS011;8462;53.156;8.220;2024-03-07T02:45:34;27.63;;;17.50;;
7657;SDS011;8462;53.156;8.220;2024-03-07T02:48:02;23.20;;;14.67;;
7657;SDS011;8462;53.156;8.220;2024-03-07T02:50:35;27.17;;;18.00;;
7657;SDS011;8462;53.156;8.220;2024-03-07T02:53:03;27.60;;;17.40;;
7657;SDS011;8462;53.156;8.220;2024-03-07T02:55:40;26.00;;;17.00;;
7657;SDS011;8462;53.156;8.220;2024-03-07T02:58:08;24.53;;;17.80;;
7657;SDS011;8462;53.156;8.220;2024-03-07T03:00:39;27.17;;;16.67;;
7657;SDS011;8462;53.156;8.220;2024-03-07T03:03:06;26.10;;;17.57;;
7657;SDS011;8462;53.156;8.220;2024-03-07T03:05:34;28.53;;;17.67;;
7657;SDS011;8462;53.156;8.220;2024-03-07T03:08:03;28.60;;;18.57;;
7657;SDS011;8462;53.156;8.220;2024-03-07T03:10:38;33.33;;;19.77;;
7657;SDS011;8462;53.156;8.220;2024-03-07T03:13:09;27.87;;;17.33;;
7657;SDS011;8462;53.156;8.220;2024-03-07T03:15:39;31.60;;;19.77;;
7657;SDS011;8462;53.156;8.220;2024-03-07T03:18:07;28.70;;;18.67;;
7657;SDS011;8462;53.156;8.220;2024-03-07T03:20:34;31.23;;;20.73;;
7657;SDS011;8462;53.156;8.220;2024-03-07T03:23:04;31.77;;;19.20;;
7657;SDS011;8462;53.156;8.220;2024-03-07T03:25:38;35.23;;;21.07;;
7657;SDS011;8462;53.156;8.220;2024-03-07T03:28:07;38.77;;;20.30;;
7657;SDS011;8462;53.156;8.220;2024-03-07T03:30:38;52.00;;;23.47;;
7657;SDS011;8462;53.156;8.220;2024-03-07T03:33:09;41.17;;;23.40;;
7657;SDS011;8462;53.156;8.220;2024-03-07T03:35:37;39.27;;;19.33;;
7657;SDS011;8462;53.156;8.220;2024-03-07T03:38:06;51.40;;;25.77;;
7657;SDS011;8462;53.156;8.220;2024-03-07T03:40:35;79.87;;;30.23;;
7657;SDS011;8462;53.156;8.220;2024-03-07T03:43:03;60.00;;;26.47;;
7657;SDS011;8462;53.156;8.220;2024-03-07T03:45:33;67.20;;;23.30;;
7657;SDS011;8462;53.156;8.220;2024-03-07T03:48:00;78.50;;;29.77;;
7657;SDS011;8462;53.156;8.220;2024-03-07T03:50:30;38.73;;;17.87;;
7657;SDS011;8462;53.156;8.220;2024-03-07T03:52:58;81.73;;;26.27;;
7657;SDS011;8462;53.156;8.220;2024-03-07T03:55:28;53.63;;;24.53;;
7657;SDS011;8462;53.156;8.220;2024-03-07T03:57:57;86.40;;;30.80;;
7657;SDS011;8462;53.156;8.220;2024-03-07T04:00:24;72.93;;;29.07;;
7657;SDS011;8462;53.156;8.220;2024-03-07T04:02:55;62.47;;;25.83;;
7657;SDS011;8462;53.156;8.220;2024-03-07T04:05:22;62.87;;;25.60;;
7657;SDS011;8462;53.156;8.220;2024-03-07T04:07:51;46.90;;;22.57;;
7657;SDS011;8462;53.156;8.220;2024-03-07T04:10:19;73.67;;;27.00;;
7657;SDS011;8462;53.156;8.220;2024-03-07T04:12:53;65.77;;;25.43;;
7657;SDS011;8462;53.156;8.220;2024-03-07T04:15:21;51.93;;;23.83;;
7657;SDS011;8462;53.156;8.220;2024-03-07T04:17:59;51.00;;;23.90;;
7657;SDS011;8462;53.156;8.220;2024-03-07T04:20:27;48.67;;;22.97;;
7657;SDS011;8462;53.156;8.220;2024-03-07T04:22:54;66.10;;;25.17;;
7657;SDS011;8462;53.156;8.220;2024-03-07T04:25:22;72.80;;;27.40;;
7657;SDS011;8462;53.156;8.220;2024-03-07T04:27:50;71.63;;;26.23;;
7657;SDS011;8462;53.156;8.220;2024-03-07T04:30:19;73.87;;;27.73;;
7657;SDS011;8462;53.156;8.220;2024-03-07T04:32:48;61.57;;;26.70;;
7657;SDS011;8462;53.156;8.220;2024-03-07T04:35:17;52.60;;;22.17;;
7657;SDS011;8462;53.156;8.220;2024-03-07T04:37:44;65.07;;;29.83;;
7657;SDS011;8462;53.156;8.220;2024-03-07T04:40:13;64.60;;;30.27;;
7657;SDS011;8462;53.156;8.220;2024-03-07T04:42:43;63.47;;;28.13;;
7657;SDS011;8462;53.156;8.220;2024-03-07T04:45:12;68.27;;;30.83;;
7657;SDS011;8462;53.156;8.220;2024-03-07T04:47:42;75.63;;;28.40;;
7657;SDS011;8462;53.156;8.220;2024-03-07T04:50:12;85.70;;;30.33;;
7657;SDS011;8462;53.156;8.220;2024-03-07T04:52:44;64.57;;;27.30;;
7657;SDS011;8462;53.156;8.220;2024-03-07T04:55:13;65.27;;;26.77;;
7657;SDS011;8462;53.156;8.220;2024-03-07T04:57:40;62.80;;;26.53;;
7657;SDS011;8462;53.156;8.220;2024-03-07T05:00:10;67.53;;;28.50;;
7657;SDS011;8462;53.156;8.220;2024-03-07T05:02:40;72.90;;;27.60;;
7657;SDS011;8462;53.156;8.220;2024-03-07T05:05:08;87.97;;;30.67;;
7657;SDS011;8462;53.156;8.220;2024-03-07T05:07:35;86.97;;;30.40;;
7657;SDS011;8462;53.156;8.220;2024-03-07T05:10:05;70.63;;;24.30;;
7657;SDS011;8462;53.156;8.220;2024-03-07T05:12:34;99.57;;;32.97;;
7657;SDS011;8462;53.156;8.220;2024-03-07T05:15:05;83.97;;;27.07;;
7657;SDS011;8462;53.156;8.220;2024-03-07T05:17:36;103.83;;;32.87;;
7657;SDS011;8462;53.156;8.220;2024-03-07T05:20:05;62.80;;;25.17;;
7657;SDS011;8462;53.156;8.220;2024-03-07T05:22:36;72.60;;;28.37;;
7657;SDS011;8462;53.156;8.220;2024-03-07T05:25:07;81.53;;;27.20;;
7657;SDS011;8462;53.156;8.220;2024-03-07T05:30:12;45.17;;;18.37;;
7657;SDS011;8462;53.156;8.220;2024-03-07T05:32:41;68.47;;;28.37;;
7657;SDS011;8462;53.156;8.220;2024-03-07T05:35:10;83.20;;;29.63;;
7657;SDS011;8462;53.156;8.220;2024-03-07T05:37:39;69.50;;;27.60;;
7657;SDS011;8462;53.156;8.220;2024-03-07T05:40:14;74.33;;;29.80;;
7657;SDS011;8462;53.156;8.220;2024-03-07T05:42:41;66.67;;;27.40;;
7657;SDS011;8462;53.156;8.220;2024-03-07T05:45:10;76.47;;;28.97;;
7657;SDS011;8462;53.156;8.220;2024-03-07T05:47:38;78.30;;;28.30;;
7657;SDS011;8462;53.156;8.220;2024-03-07T05:50:06;70.47;;;28.00;;
7657;SDS011;8462;53.156;8.220;2024-03-07T05:52:34;65.63;;;26.40;;
7657;SDS011;8462;53.156;8.220;2024-03-07T05:55:04;62.37;;;26.73;;
7657;SDS011;8462;53.156;8.220;2024-03-07T05:57:35;62.57;;;26.53;;
7657;SDS011;8462;53.156;8.220;2024-03-07T06:00:06;64.23;;;25.27;;
7657;SDS011;8462;53.156;8.220;2024-03-07T06:02:43;71.50;;;27.17;;
7657;SDS011;8462;53.156;8.220;2024-03-07T06:05:15;57.57;;;22.73;;
7657;SDS011;8462;53.156;8.220;2024-03-07T06:07:44;58.40;;;24.10;;
7657;SDS011;8462;53.156;8.220;2024-03-07T06:10:13;59.57;;;26.43;;
7657;SDS011;8462;53.156;8.220;2024-03-07T06:12:43;63.60;;;28.43;;
7657;SDS011;8462;53.156;8.220;2024-03-07T06:15:12;81.20;;;30.20;;
7657;SDS011;8462;53.156;8.220;2024-03-07T06:17:40;62.07;;;25.27;;
7657;SDS011;8462;53.156;8.220;2024-03-07T06:20:12;60.87;;;25.23;;
7657;SDS011;8462;53.156;8.220;2024-03-07T06:22:49;84.63;;;31.80;;
7657;SDS011;8462;53.156;8.220;2024-03-07T06:25:17;68.70;;;27.77;;
7657;SDS011;8462;53.156;8.220;2024-03-07T06:27:51;76.40;;;31.13;;
7657;SDS011;8462;53.156;8.220;2024-03-07T06:30:21;79.10;;;30.33;;
7657;SDS011;8462;53.156;8.220;2024-03-07T06:32:50;77.17;;;30.57;;
7657;SDS011;8462;53.156;8.220;2024-03-07T06:35:19;66.53;;;28.20;;
7657;SDS011;8462;53.156;8.220;2024-03-07T06:37:49;77.90;;;32.97;;
7657;SDS011;8462;53.156;8.220;2024-03-07T06:40:21;69.40;;;28.63;;
7657;SDS011;8462;53.156;8.220;2024-03-07T06:42:48;58.57;;;22.67;;
7657;SDS011;8462;53.156;8.220;2024-03-07T06:45:20;73.40;;;30.83;;
7657;SDS011;8462;53.156;8.220;2024-03-07T06:47:49;67.70;;;26.90;;
7657;SDS011;8462;53.156;8.220;2024-03-07T06:50:17;77.73;;;28.97;;
7657;SDS011;8462;53.156;8.220;2024-03-07T06:52:48;57.10;;;21.93;;
7657;SDS011;8462;53.156;8.220;2024-03-07T06:55:16;69.93;;;30.53;;
7657;SDS011;8462;53.156;8.220;2024-03-07T06:57:45;61.03;;;25.37;;
7657;SDS011;8462;53.156;8.220;2024-03-07T07:00:14;60.97;;;28.97;;
7657;SDS011;8462;53.156;8.220;2024-03-07T07:02:46;63.87;;;29.93;;
7657;SDS011;8462;53.156;8.220;2024-03-07T07:05:14;69.83;;;29.13;;
7657;SDS011;8462;53.156;8.220;2024-03-07T07:07:43;65.97;;;27.30;;
7657;SDS011;8462;53.156;8.220;2024-03-07T07:10:11;57.57;;;24.93;;
7657;SDS011;8462;53.156;8.220;2024-03-07T07:12:44;68.27;;;30.97;;
7657;SDS011;8462;53.156;8.220;2024-03-07T07:15:14;71.80;;;33.10;;
7657;SDS011;8462;53.156;8.220;2024-03-07T07:17:43;71.43;;;29.83;;
7657;SDS011;8462;53.156;8.220;2024-03-07T07:20:13;45.43;;;22.47;;
7657;SDS011;8462;53.156;8.220;2024-03-07T07:22:42;47.57;;;21.43;;
7657;SDS011;8462;53.156;8.220;2024-03-07T07:25:12;47.27;;;22.37;;
7657;SDS011;8462;53.156;8.220;2024-03-07T07:27:41;52.03;;;27.63;;
7657;SDS011;8462;53.156;8.220;2024-03-07T07:30:13;51.53;;;25.60;;
7657;SDS011;8462;53.156;8.220;2024-03-07T07:32:46;50.33;;;25.87;;
7657;SDS011;8462;53.156;8.220;2024-03-07T07:35:14;49.70;;;24.80;;
7657;SDS011;8462;53.156;8.220;2024-03-07T07:37:45;50.47;;;24.67;;
7657;SDS011;8462;53.156;8.220;2024-03-07T07:40:14;49.83;;;25.43;;
7657;SDS011;8462;53.156;8.220;2024-03-07T07:42:45;52.23;;;24.60;;
7657;SDS011;8462;53.156;8.220;2024-03-07T07:45:15;47.43;;;24.30;;
7657;SDS011;8462;53.156;8.220;2024-03-07T07:47:44;48.53;;;23.90;;
7657;SDS011;8462;53.156;8.220;2024-03-07T07:50:15;43.47;;;23.87;;
7657;SDS011;8462;53.156;8.220;2024-03-07T07:52:47;42.23;;;22.40;;
7657;SDS011;8462;53.156;8.220;2024-03-07T07:55:16;41.33;;;21.17;;
7657;SDS011;8462;53.156;8.220;2024-03-07T07:57:52;43.67;;;21.53;;
7657;SDS011;8462;53.156;8.220;2024-03-07T08:00:21;38.27;;;21.17;;
7657;SDS011;8462;53.156;8.220;2024-03-07T08:02:55;40.77;;;21.27;;
7657;SDS011;8462;53.156;8.220;2024-03-07T08:05:28;36.53;;;20.83;;
7657;SDS011;8462;53.156;8.220;2024-03-07T08:07:59;36.40;;;19.10;;
7657;SDS011;8462;53.156;8.220;2024-03-07T08:10:32;36.57;;;19.50;;
7657;SDS011;8462;53.156;8.220;2024-03-07T08:13:01;30.07;;;19.37;;
7657;SDS011;8462;53.156;8.220;2024-03-07T08:15:33;33.43;;;20.10;;
7657;SDS011;8462;53.156;8.220;2024-03-07T08:18:03;35.00;;;19.70;;
7657;SDS011;8462;53.156;8.220;2024-03-07T08:20:34;33.23;;;18.93;;
7657;SDS011;8462;53.156;8.220;2024-03-07T08:23:03;34.77;;;19.33;;
7657;SDS011;8462;53.156;8.220;2024-03-07T08:25:31;29.43;;;15.13;;
7657;SDS011;8462;53.156;8.220;2024-03-07T08:27:59;32.00;;;18.27;;
7657;SDS011;8462;53.156;8.220;2024-03-07T08:30:27;33.00;;;20.63;;
7657;SDS011;8462;53.156;8.220;2024-03-07T08:32:58;32.13;;;19.07;;
7657;SDS011;8462;53.156;8.220;2024-03-07T08:35:30;41.30;;;19.60;;
7657;SDS011;8462;53.156;8.220;2024-03-07T08:37:58;28.97;;;15.47;;
7657;SDS011;8462;53.156;8.220;2024-03-07T08:40:27;27.23;;;17.17;;
7657;SDS011;8462;53.156;8.220;2024-03-07T08:42:58;34.43;;;18.83;;
7657;SDS011;8462;53.156;8.220;2024-03-07T08:45:28;35.37;;;19.33;;
7657;SDS011;8462;53.156;8.220;2024-03-07T08:47:59;32.73;;;19.07;;
7657;SDS011;8462;53.156;8.220;2024-03-07T08:50:30;28.93;;;17.73;;
7657;SDS011;8462;53.156;8.220;2024-03-07T08:53:01;35.70;;;17.57;;
7657;SDS011;8462;53.156;8.220;2024-03-07T08:55:31;32.37;;;17.87;;
7657;SDS011;8462;53.156;8.220;2024-03-07T08:58:03;29.20;;;17.80;;
7657;SDS011;8462;53.156;8.220;2024-03-07T09:00:32;34.20;;;19.33;;
7657;SDS011;8462;53.156;8.220;2024-03-07T09:03:02;33.50;;;21.33;;
7657;SDS011;8462;53.156;8.220;2024-03-07T09:05:34;37.57;;;19.93;;
7657;SDS011;8462;53.156;8.220;2024-03-07T09:08:02;30.97;;;18.23;;
7657;SDS011;8462;53.156;8.220;2024-03-07T09:10:32;38.37;;;20.90;;
7657;SDS011;8462;53.156;8.220;2024-03-07T09:13:01;35.07;;;20.90;;
7657;SDS011;8462;53.156;8.220;2024-03-07T09:15:29;32.73;;;18.33;;
7657;SDS011;8462;53.156;8.220;2024-03-07T09:17:58;39.43;;;20.43;;
7657;SDS011;8462;53.156;8.220;2024-03-07T09:20:29;34.00;;;19.20;;
7657;SDS011;8462;53.156;8.220;2024-03-07T09:23:00;30.10;;;17.03;;
7657;SDS011;8462;53.156;8.220;2024-03-07T09:25:28;32.27;;;18.30;;
7657;SDS011;8462;53.156;8.220;2024-03-07T09:27:58;30.10;;;16.50;;
7657;SDS011;8462;53.156;8.220;2024-03-07T09:30:27;32.93;;;19.60;;
7657;SDS011;8462;53.156;8.220;2024-03-07T09:32:56;34.37;;;18.33;;
7657;SDS011;8462;53.156;8.220;2024-03-07T09:35:25;34.57;;;18.13;;
7657;SDS011;8462;53.156;8.220;2024-03-07T09:37:54;30.97;;;19.13;;
7657;SDS011;8462;53.156;8.220;2024-03-07T09:40:24;26.83;;;16.57;;
7657;SDS011;8462;53.156;8.220;2024-03-07T09:42:52;30.73;;;17.93;;
7657;SDS011;8462;53.156;8.220;2024-03-07T09:45:22;30.67;;;18.37;;
7657;SDS011;8462;53.156;8.220;2024-03-07T09:47:55;29.93;;;15.20;;
7657;SDS011;8462;53.156;8.220;2024-03-07T09:50:25;30.27;;;17.87;;
7657;SDS011;8462;53.156;8.220;2024-03-07T09:52:56;30.00;;;19.17;;
7657;SDS011;8462;53.156;8.220;2024-03-07T09:55:27;30.43;;;17.93;;
7657;SDS011;8462;53.156;8.220;2024-03-07T09:57:58;30.33;;;16.37;;
7657;SDS011;8462;53.156;8.220;2024-03-07T10:00:27;30.93;;;18.90;;
7657;SDS011;8462;53.156;8.220;2024-03-07T10:02:58;27.17;;;16.03;;
7657;SDS011;8462;53.156;8.220;2024-03-07T10:05:29;28.97;;;17.80;;
7657;SDS011;8462;53.156;8.220;2024-03-07T10:07:57;27.53;;;16.87;;
7657;SDS011;8462;53.156;8.220;2024-03-07T10:10:34;24.77;;;16.07;;
7657;SDS011;8462;53.156;8.220;2024-03-07T10:13:02;24.40;;;16.37;;
7657;SDS011;8462;53.156;8.220;2024-03-07T10:15:38;24.40;;;17.20;;
7657;SDS011;8462;53.156;8.220;2024-03-07T10:18:09;28.30;;;17.53;;
7657;SDS011;8462;53.156;8.220;2024-03-07T10:20:36;25.77;;;16.77;;
7657;SDS011;8462;53.156;8.220;2024-03-07T10:23:06;26.03;;;17.07;;
7657;SDS011;8462;53.156;8.220;2024-03-07T10:25:37;28.87;;;15.73;;
7657;SDS011;8462;53.156;8.220;2024-03-07T10:28:08;25.97;;;14.73;;
7657;SDS011;8462;53.156;8.220;2024-03-07T10:30:40;26.53;;;17.27;;
7657;SDS011;8462;53.156;8.220;2024-03-07T10:33:10;25.87;;;17.17;;
7657;SDS011;8462;53.156;8.220;2024-03-07T10:35:40;24.33;;;16.40;;
7657;SDS011;8462;53.156;8.220;2024-03-07T10:38:10;27.60;;;17.87;;
7657;SDS011;8462;53.156;8.220;2024-03-07T10:40:39;26.27;;;15.30;;
7657;SDS011;8462;53.156;8.220;2024-03-07T10:43:10;25.57;;;15.77;;
7657;SDS011;8462;53.156;8.220;2024-03-07T10:45:42;22.87;;;16.40;;
7657;SDS011;8462;53.156;8.220;2024-03-07T10:48:17;21.77;;;15.47;;
7657;SDS011;8462;53.156;8.220;2024-03-07T10:50:51;25.47;;;16.50;;
7657;SDS011;8462;53.156;8.220;2024-03-07T10:53:24;26.13;;;16.03;;
7657;SDS011;8462;53.156;8.220;2024-03-07T10:56:04;25.80;;;17.60;;
7657;SDS011;8462;53.156;8.220;2024-03-07T10:58:47;24.93;;;16.80;;
7657;SDS011;8462;53.156;8.220;2024-03-07T11:01:26;23.23;;;15.77;;
7657;SDS011;8462;53.156;8.220;2024-03-07T11:03:59;26.43;;;15.37;;
7657;SDS011;8462;53.156;8.220;2024-03-07T11:06:30;23.03;;;14.50;;
7657;SDS011;8462;53.156;8.220;2024-03-07T11:09:00;25.10;;;15.77;;
7657;SDS011;8462;53.156;8.220;2024-03-07T11:11:45;27.33;;;15.87;;
7657;SDS011;8462;53.156;8.220;2024-03-07T11:14:38;24.70;;;16.77;;
7657;SDS011;8462;53.156;8.220;2024-03-07T11:17:08;24.20;;;15.37;;
7657;SDS011;8462;53.156;8.220;2024-03-07T11:19:44;23.23;;;13.93;;
7657;SDS011;8462;53.156;8.220;2024-03-07T11:22:28;24.33;;;14.30;;
7657;SDS011;8462;53.156;8.220;2024-03-07T11:25:01;24.57;;;17.10;;
7657;SDS011;8462;53.156;8.220;2024-03-07T11:27:35;26.23;;;17.07;;
7657;SDS011;8462;53.156;8.220;2024-03-07T11:30:06;26.63;;;16.30;;
7657;SDS011;8462;53.156;8.220;2024-03-07T11:32:35;19.87;;;12.10;;
7657;SDS011;8462;53.156;8.220;2024-03-07T11:35:11;29.57;;;18.93;;
7657;SDS011;8462;53.156;8.220;2024-03-07T11:37:41;29.07;;;16.93;;
7657;SDS011;8462;53.156;8.220;2024-03-07T11:43:14;22.67;;;16.57;;
7657;SDS011;8462;53.156;8.220;2024-03-07T11:45:43;26.10;;;15.20;;
7657;SDS011;8462;53.156;8.220;2024-03-07T11:48:18;25.53;;;16.13;;
7657;SDS011;8462;53.156;8.220;2024-03-07T11:50:46;24.10;;;17.20;;
7657;SDS011;8462;53.156;8.220;2024-03-07T11:53:15;25.07;;;16.30;;
7657;SDS011;8462;53.156;8.220;2024-03-07T11:55:45;25.10;;;16.43;;
7657;SDS011;8462;53.156;8.220;2024-03-07T11:58:15;27.60;;;18.63;;
7657;SDS011;8462;53.156;8.220;2024-03-07T12:00:44;21.60;;;14.23;;
7657;SDS011;8462;53.156;8.220;2024-03-07T12:03:17;20.70;;;14.80;;
7657;SDS011;8462;53.156;8.220;2024-03-07T12:05:47;24.30;;;16.50;;
7657;SDS011;8462;53.156;8.220;2024-03-07T12:08:17;29.83;;;16.67;;
7657;SDS011;8462;53.156;8.220;2024-03-07T12:10:50;19.53;;;11.27;;
7657;SDS011;8462;53.156;8.220;2024-03-07T12:13:22;24.47;;;15.57;;
7657;SDS011;8462;53.156;8.220;2024-03-07T12:15:51;27.57;;;18.53;;
7657;SDS011;8462;53.156;8.220;2024-03-07T12:18:23;25.87;;;15.43;;
7657;SDS011;8462;53.156;8.220;2024-03-07T12:20:53;28.00;;;17.97;;
7657;SDS011;8462;53.156;8.220;2024-03-07T12:23:22;25.13;;;15.27;;
7657;SDS011;8462;53.156;8.220;2024-03-07T12:26:00;25.70;;;16.70;;
7657;SDS011;8462;53.156;8.220;2024-03-07T12:28:30;25.03;;;15.83;;
7657;SDS011;8462;53.156;8.220;2024-03-07T12:31:00;23.53;;;13.50;;
7657;SDS011;8462;53.156;8.220;2024-03-07T12:33:30;28.43;;;18.20;;
7657;SDS011;8462;53.156;8.220;2024-03-07T12:36:05;22.77;;;13.03;;
7657;SDS011;8462;53.156;8.220;2024-03-07T12:38:36;26.47;;;14.73;;
7657;SDS011;8462;53.156;8.220;2024-03-07T12:41:09;28.77;;;17.43;;
7657;SDS011;8462;53.156;8.220;2024-03-07T12:43:41;29.23;;;17.27;;
7657;SDS011;8462;53.156;8.220;2024-03-07T12:46:16;26.13;;;17.17;;
7657;SDS011;8462;53.156;8.220;2024-03-07T12:48:44;32.70;;;19.30;;
7657;SDS011;8462;53.156;8.220;2024-03-07T12:51:12;28.07;;;17.63;;
7657;SDS011;8462;53.156;8.220;2024-03-07T12:53:43;28.07;;;18.93;;
7657;SDS011;8462;53.156;8.220;2024-03-07T12:56:15;29.73;;;17.37;;
7657;SDS011;8462;53.156;8.220;2024-03-07T12:58:44;20.40;;;11.87;;
7657;SDS011;8462;53.156;8.220;2024-03-07T13:01:12;25.83;;;16.43;;
7657;SDS011;8462;53.156;8.220;2024-03-07T13:03:40;25.77;;;16.47;;
7657;SDS011;8462;53.156;8.220;2024-03-07T13:06:09;26.90;;;17.60;;
7657;SDS011;8462;53.156;8.220;2024-03-07T13:08:39;20.57;;;14.83;;
7657;SDS011;8462;53.156;8.220;2024-03-07T13:11:07;24.90;;;17.57;;
7657;SDS011;8462;53.156;8.220;2024-03-07T13:13:38;25.87;;;18.30;;
7657;SDS011;8462;53.156;8.220;2024-03-07T13:16:05;25.93;;;16.43;;
7657;SDS011;8462;53.156;8.220;2024-03-07T13:18:35;19.13;;;12.27;;
7657;SDS011;8462;53.156;8.220;2024-03-07T13:21:04;24.00;;;14.83;;
7657;SDS011;8462;53.156;8.220;2024-03-07T13:23:35;22.93;;;16.13;;
7657;SDS011;8462;53.156;8.220;2024-03-07T13:26:06;18.30;;;12.70;;
7657;SDS011;8462;53.156;8.220;2024-03-07T13:28:45;21.40;;;14.03;;
7657;SDS011;8462;53.156;8.220;2024-03-07T13:31:15;20.40;;;14.17;;
7657;SDS011;8462;53.156;8.220;2024-03-07T13:33:44;21.37;;;15.93;;
7657;SDS011;8462;53.156;8.220;2024-03-07T13:36:18;24.57;;;15.50;;
7657;SDS011;8462;53.156;8.220;2024-03-07T13:38:49;17.57;;;12.73;;
7657;SDS011;8462;53.156;8.220;2024-03-07T13:41:19;14.50;;;11.30;;
7657;SDS011;8462;53.156;8.220;2024-03-07T13:43:50;20.27;;;13.40;;
7657;SDS011;8462;53.156;8.220;2024-03-07T13:46:18;24.67;;;18.23;;
7657;SDS011;8462;53.156;8.220;2024-03-07T13:48:47;25.53;;;17.43;;
7657;SDS011;8462;53.156;8.220;2024-03-07T13:51:18;26.03;;;16.90;;
7657;SDS011;8462;53.156;8.220;2024-03-07T13:53:46;20.10;;;13.60;;
7657;SDS011;8462;53.156;8.220;2024-03-07T13:56:30;18.63;;;12.53;;
7657;SDS011;8462;53.156;8.220;2024-03-07T14:02:18;19.40;;;13.97;;
7657;SDS011;8462;53.156;8.220;2024-03-07T14:05:24;18.07;;;12.53;;
7657;SDS011;8462;53.156;8.220;2024-03-07T14:08:20;21.87;;;15.10;;
7657;SDS011;8462;53.156;8.220;2024-03-07T14:11:15;20.60;;;14.47;;
7657;SDS011;8462;53.156;8.220;2024-03-07T14:14:20;21.50;;;15.23;;
7657;SDS011;8462;53.156;8.220;2024-03-07T14:17:21;22.13;;;14.70;;
7657;SDS011;8462;53.156;8.220;2024-03-07T14:29:29;22.93;;;17.40;;
7657;SDS011;8462;53.156;8.220;2024-03-07T14:32:11;26.50;;;19.27;;
7657;SDS011;8462;53.156;8.220;2024-03-07T14:34:47;29.63;;;21.30;;
7657;SDS011;8462;53.156;8.220;2024-03-07T14:37:25;25.67;;;17.47;;
7657;SDS011;8462;53.156;8.220;2024-03-07T14:40:04;26.70;;;16.73;;
7657;SDS011;8462;53.156;8.220;2024-03-07T14:42:37;23.90;;;17.87;;
7657;SDS011;8462;53.156;8.220;2024-03-07T14:45:12;27.43;;;18.43;;
7657;SDS011;8462;53.156;8.220;2024-03-07T14:47:46;29.40;;;16.20;;
7657;SDS011;8462;53.156;8.220;2024-03-07T14:50:24;34.83;;;21.57;;
7657;SDS011;8462;53.156;8.220;2024-03-07T14:52:56;31.13;;;21.47;;
7657;SDS011;8462;53.156;8.220;2024-03-07T14:55:24;32.63;;;19.87;;
7657;SDS011;8462;53.156;8.220;2024-03-07T14:57:54;31.13;;;19.97;;
7657;SDS011;8462;53.156;8.220;2024-03-07T15:00:22;40.23;;;23.87;;
7657;SDS011;8462;53.156;8.220;2024-03-07T15:02:53;33.23;;;21.30;;
7657;SDS011;8462;53.156;8.220;2024-03-07T15:05:24;27.73;;;18.93;;
7657;SDS011;8462;53.156;8.220;2024-03-07T15:07:53;36.50;;;21.90;;
7657;SDS011;8462;53.156;8.220;2024-03-07T15:10:24;31.63;;;21.53;;
7657;SDS011;8462;53.156;8.220;2024-03-07T15:12:55;27.37;;;18.40;;
7657;SDS011;8462;53.156;8.220;2024-03-07T15:15:24;23.37;;;14.53;;
7657;SDS011;8462;53.156;8.220;2024-03-07T15:17:57;26.27;;;17.60;;
7657;SDS011;8462;53.156;8.220;2024-03-07T15:20:32;28.47;;;18.83;;
7657;SDS011;8462;53.156;8.220;2024-03-07T15:22:59;20.83;;;12.20;;
7657;SDS011;8462;53.156;8.220;2024-03-07T15:25:30;25.13;;;13.23;;
7657;SDS011;8462;53.156;8.220;2024-03-07T15:27:58;25.73;;;16.47;;